createdAt,value
2022-10-15T00:01:13.553Z,92.96
2022-10-15T00:06:19.639Z,93.21
2022-10-15T00:11:26.105Z,93.44
2022-10-15T00:16:29.715Z,93.81
2022-10-15T00:21:32.531Z,94.03
2022-10-15T00:26:35.288Z,94.21
2022-10-15T00:31:38.172Z,93.86
2022-10-15T00:36:40.893Z,93.62
2022-10-15T00:41:44.963Z,93.94
2022-10-15T00:46:50.927Z,93.88
2022-10-15T00:52:03.248Z,93.76
2022-10-15T00:57:07.961Z,93.78
2022-10-15T01:02:11.945Z,93.83
2022-10-15T01:12:38.201Z,93.36
2022-10-15T01:18:03.414Z,93.38
2022-10-15T01:23:22.386Z,93.30
2022-10-15T01:28:49.774Z,93.40
2022-10-15T01:34:03.583Z,93.28
2022-10-15T01:39:12.340Z,93.42
2022-10-15T01:44:23.871Z,93.47
2022-10-15T01:49:31.604Z,93.51
2022-10-15T01:54:35.743Z,93.51
2022-10-15T01:59:38.499Z,93.48
2022-10-15T02:04:41.339Z,93.63
2022-10-15T02:10:05.910Z,93.69
2022-10-15T02:15:23.528Z,93.80
2022-10-15T02:20:41.627Z,93.77
2022-10-15T02:25:46.260Z,93.83
2022-10-15T02:30:53.309Z,94.18
2022-10-15T02:35:58.126Z,94.10
2022-10-15T02:41:02.186Z,94.38
2022-10-15T02:46:05.598Z,94.24
2022-10-15T02:51:08.327Z,94.40
2022-10-15T02:56:11.002Z,94.47
2022-10-15T03:01:13.866Z,94.65
2022-10-15T03:06:17.026Z,94.82
2022-10-15T03:11:19.752Z,95.26
2022-10-15T03:16:22.622Z,95.60
2022-10-15T03:21:25.311Z,95.53
2022-10-15T03:26:27.981Z,95.78
2022-10-15T03:31:30.687Z,95.88
2022-10-15T03:36:33.446Z,95.87
2022-10-15T03:41:36.198Z,95.68
2022-10-15T03:46:38.956Z,95.85
2022-10-15T03:51:41.629Z,96.08
2022-10-15T03:56:44.385Z,96.17
2022-10-15T04:01:47.067Z,96.31
2022-10-15T04:06:49.764Z,96.00
2022-10-15T04:11:52.439Z,96.12
2022-10-15T04:16:56.484Z,96.32
2022-10-15T04:21:59.415Z,96.34
2022-10-15T04:27:03.012Z,95.84
2022-10-15T04:32:05.748Z,95.54
2022-10-15T04:37:08.474Z,95.69
2022-10-15T04:42:11.166Z,95.69
2022-10-15T04:47:14.005Z,95.46
2022-10-15T04:52:16.675Z,95.38
2022-10-15T04:57:19.492Z,95.42
2022-10-15T05:02:22.786Z,95.44
2022-10-15T05:07:26.649Z,95.10
2022-10-15T05:12:29.765Z,95.12
2022-10-15T05:17:32.499Z,94.91
2022-10-15T05:22:35.327Z,95.22
2022-10-15T05:27:38.025Z,95.10
2022-10-15T05:32:40.731Z,94.85
2022-10-15T05:37:43.494Z,94.59
2022-10-15T05:47:56.073Z,94.32
2022-10-15T05:52:58.763Z,94.20
2022-10-15T05:58:03.387Z,94.06
2022-10-15T06:03:06.108Z,94.30
2022-10-15T06:08:08.829Z,94.06
2022-10-15T06:13:12.421Z,93.25
2022-10-15T06:18:17.185Z,92.50
2022-10-15T06:23:21.764Z,92.27
2022-10-15T06:28:24.517Z,91.82
2022-10-15T06:33:28.330Z,91.27
2022-10-15T06:38:31.088Z,90.59
2022-10-15T06:43:35.388Z,90.15
2022-10-15T06:48:38.382Z,89.65
2022-10-15T06:53:45.243Z,89.58
2022-10-15T06:58:47.913Z,89.43
2022-10-15T07:03:51.966Z,89.32
2022-10-15T07:08:54.692Z,89.28
2022-10-15T07:13:58.304Z,89.51
2022-10-15T07:19:01.020Z,89.10
2022-10-15T07:24:03.937Z,88.88
2022-10-15T07:29:06.917Z,88.31
2022-10-15T07:34:09.691Z,87.51
2022-10-15T07:39:12.453Z,86.78
2022-10-15T07:44:15.182Z,86.54
2022-10-15T07:49:17.997Z,85.39
2022-10-15T07:54:20.805Z,85.07
2022-10-15T07:59:23.705Z,83.13
2022-10-15T08:04:26.425Z,82.19
2022-10-15T08:09:29.131Z,81.25
2022-10-15T08:14:31.902Z,79.11
2022-10-15T08:19:34.664Z,77.80
2022-10-15T08:24:37.426Z,76.23
2022-10-15T08:29:40.084Z,75.61
2022-10-15T08:34:42.869Z,74.85
2022-10-15T08:39:45.681Z,74.04
2022-10-15T08:44:53.681Z,73.44
2022-10-15T08:50:02.573Z,72.94
2022-10-15T08:55:05.563Z,72.48
2022-10-15T09:00:11.766Z,72.98
2022-10-15T09:05:20.535Z,73.23
2022-10-15T09:10:50.203Z,73.53
2022-10-15T09:16:02.514Z,73.50
2022-10-15T09:21:06.003Z,73.23
2022-10-15T09:26:43.705Z,73.47
2022-10-15T09:32:09.166Z,74.03
2022-10-15T09:37:18.942Z,74.09
2022-10-15T09:42:41.809Z,74.17
2022-10-15T09:47:45.171Z,73.65
2022-10-15T09:53:13.222Z,73.79
2022-10-15T09:58:26.590Z,74.08
2022-10-15T10:03:32.561Z,74.22
2022-10-15T10:08:39.930Z,73.99
2022-10-15T10:13:48.741Z,73.93
2022-10-15T10:19:02.870Z,74.11
2022-10-15T10:24:30.244Z,74.52
2022-10-15T10:29:40.033Z,74.24
2022-10-15T10:34:46.580Z,74.46
2022-10-15T10:39:59.319Z,74.66
2022-10-15T10:45:23.818Z,74.17
2022-10-15T10:50:33.568Z,73.79
2022-10-15T10:55:40.148Z,73.04
2022-10-15T11:00:45.966Z,72.73
2022-10-15T11:05:54.000Z,72.61
2022-10-15T11:11:05.586Z,72.73
2022-10-15T11:16:29.477Z,72.36
2022-10-15T11:22:05.724Z,73.01
2022-10-15T11:27:17.917Z,73.55
2022-10-15T11:32:23.290Z,74.18
2022-10-15T11:37:40.087Z,73.81
2022-10-15T11:42:53.261Z,73.52
2022-10-15T11:48:23.483Z,73.20
2022-10-15T11:53:32.489Z,73.30
2022-10-15T11:58:41.999Z,73.24
2022-10-15T12:04:02.506Z,72.91
2022-10-15T12:09:07.225Z,72.85
2022-10-15T12:14:22.346Z,72.98
2022-10-15T12:19:45.659Z,73.63
2022-10-15T12:24:49.005Z,73.47
2022-10-15T12:30:00.665Z,73.33
2022-10-15T12:35:07.293Z,73.12
2022-10-15T12:40:22.586Z,72.78
2022-10-15T12:45:29.299Z,71.99
2022-10-15T12:50:35.246Z,71.53
2022-10-15T12:55:39.746Z,70.71
2022-10-15T13:00:43.331Z,70.11
2022-10-15T13:05:47.893Z,69.35
2022-10-15T13:11:00.704Z,69.92
2022-10-15T13:16:08.814Z,70.43
2022-10-15T13:21:13.808Z,70.87
2022-10-15T13:26:21.284Z,71.45
2022-10-15T13:31:31.089Z,72.36
2022-10-15T13:36:35.302Z,73.72
2022-10-15T13:41:42.687Z,74.77
2022-10-15T13:46:45.383Z,75.28
2022-10-15T13:51:51.893Z,75.23
2022-10-15T13:56:57.944Z,75.57
2022-10-15T14:02:04.565Z,76.10
2022-10-15T14:07:24.747Z,76.58
2022-10-15T14:12:27.803Z,77.29
2022-10-15T14:17:33.224Z,77.70
2022-10-15T14:22:36.304Z,78.11
2022-10-15T14:27:45.784Z,78.19
2022-10-15T14:32:52.941Z,78.72
2022-10-15T14:38:15.394Z,79.10
2022-10-15T14:43:19.279Z,79.30
2022-10-15T14:48:34.150Z,79.42
2022-10-15T14:53:44.335Z,79.62
2022-10-15T14:58:52.404Z,79.92
2022-10-15T15:03:57.054Z,80.05
2022-10-15T15:08:59.909Z,80.29
2022-10-15T15:14:03.772Z,80.48
2022-10-15T15:19:09.501Z,80.56
2022-10-15T15:24:12.361Z,80.78
2022-10-15T15:29:15.349Z,80.90
2022-10-15T15:34:18.167Z,81.08
2022-10-15T15:39:20.866Z,81.36
2022-10-15T15:44:23.549Z,81.41
2022-10-15T15:49:26.372Z,81.53
2022-10-15T15:54:29.161Z,81.68
2022-10-15T15:59:33.077Z,81.81
2022-10-15T16:04:38.208Z,81.89
2022-10-15T16:09:41.729Z,82.09
2022-10-15T16:14:44.470Z,82.31
2022-10-15T16:19:47.228Z,82.61
2022-10-15T16:24:51.346Z,82.71
2022-10-15T16:29:54.160Z,82.78
2022-10-15T16:34:56.896Z,82.96
2022-10-15T16:39:59.683Z,83.07
2022-10-15T16:45:02.725Z,83.17
2022-10-15T16:50:06.202Z,83.13
2022-10-15T16:55:09.461Z,83.25
2022-10-15T17:00:12.514Z,83.45
2022-10-15T17:05:15.256Z,83.62
2022-10-15T17:10:19.255Z,83.59
2022-10-15T17:15:24.005Z,83.82
2022-10-15T17:20:26.670Z,84.12
2022-10-15T17:25:29.365Z,84.42
2022-10-15T17:30:35.502Z,85.02
2022-10-15T17:35:38.325Z,85.20
2022-10-15T17:40:42.311Z,85.60
2022-10-15T17:45:45.045Z,85.70
2022-10-15T17:50:47.709Z,85.96
2022-10-15T17:55:50.482Z,86.75
2022-10-15T18:00:56.423Z,87.53
2022-10-15T18:06:06.740Z,88.03
2022-10-15T18:11:11.521Z,88.36
2022-10-15T18:16:14.264Z,88.61
2022-10-15T18:21:18.816Z,88.71
2022-10-15T18:26:22.382Z,89.01
2022-10-15T18:31:26.409Z,89.05
2022-10-15T18:36:31.455Z,89.27
2022-10-15T18:41:35.867Z,89.31
2022-10-15T18:46:42.309Z,89.38
2022-10-15T18:51:46.272Z,89.56
2022-10-15T18:56:48.995Z,89.44
2022-10-15T19:01:51.850Z,89.23
2022-10-15T19:06:55.004Z,89.18
2022-10-15T19:11:58.628Z,88.86
2022-10-15T19:17:01.342Z,88.99
2022-10-15T19:22:04.167Z,88.87
2022-10-15T19:27:07.020Z,88.81
2022-10-15T19:32:11.040Z,88.70
2022-10-15T19:37:13.850Z,88.54
2022-10-15T19:42:16.801Z,88.45
2022-10-15T19:47:21.317Z,88.59
2022-10-15T19:52:24.115Z,88.61
2022-10-15T19:57:26.982Z,88.41
2022-10-15T20:02:30.190Z,88.30
2022-10-15T20:07:32.985Z,88.52
2022-10-15T20:12:36.769Z,88.50
2022-10-15T20:17:39.524Z,88.56
2022-10-15T20:22:42.310Z,88.43
2022-10-15T20:27:44.996Z,88.43
2022-10-15T20:32:48.152Z,88.39
2022-10-15T20:37:50.904Z,88.34
2022-10-15T20:42:53.757Z,88.28
2022-10-15T20:47:58.352Z,88.33
2022-10-15T20:53:02.957Z,88.27
2022-10-15T20:58:05.731Z,88.16
2022-10-15T21:03:08.949Z,88.04
2022-10-15T21:08:11.781Z,88.11
2022-10-15T21:13:14.501Z,88.26
2022-10-15T21:18:17.173Z,88.17
2022-10-15T21:23:20.214Z,88.16
2022-10-15T21:28:24.067Z,88.32
2022-10-15T21:33:26.851Z,88.31
2022-10-15T21:38:29.492Z,88.18
2022-10-15T21:43:32.244Z,88.20
2022-10-15T21:48:36.805Z,88.27
2022-10-15T21:53:40.192Z,88.37
2022-10-15T21:58:43.338Z,88.25
2022-10-15T22:03:46.786Z,88.23
2022-10-15T22:08:49.945Z,88.20
2022-10-15T22:13:56.527Z,88.26
2022-10-15T22:18:59.255Z,88.17
2022-10-15T22:24:05.441Z,88.24
2022-10-15T22:29:11.043Z,88.44
2022-10-15T22:34:14.028Z,88.23
2022-10-15T22:39:18.147Z,88.49
2022-10-15T22:44:21.445Z,88.81
2022-10-15T22:49:25.643Z,89.10
2022-10-15T22:54:28.323Z,89.28
2022-10-15T22:59:31.206Z,89.50
2022-10-15T23:04:33.866Z,89.77
2022-10-15T23:09:36.539Z,89.97
2022-10-15T23:14:42.010Z,90.37
2022-10-15T23:19:44.696Z,90.29
2022-10-15T23:24:47.376Z,90.70
2022-10-15T23:29:56.905Z,90.79
2022-10-15T23:35:11.959Z,91.42
2022-10-15T23:40:14.737Z,92.03
2022-10-15T23:45:17.751Z,92.67
2022-10-15T23:50:20.420Z,92.87
2022-10-15T23:55:23.064Z,93.18
